Time,TemperatureF,DewpointF,PressureIn,WindDirection,WindDirectionDegrees,WindSpeedMPH,WindSpeedGustMPH,Humidity,HourlyPrecipIn,Conditions,Clouds,dailyrainin,SolarRadiationWatts/m^2,SoftwareType,DateUTC
2013-04-28 00:03:00,58.0,-99.9,-100.00,East,88,0.0,6.0,72,0.00,,,0.00,0.000000,,2013-04-28 04:03:00,
2013-04-28 00:13:00,58.0,49.0,-100.00,East,88,0.0,6.0,72,0.00,,,0.00,0.000000,,2013-04-28 04:13:00,
2013-04-28 00:43:00,57.0,50.0,-100.00,East,97,0.0,4.0,76,0.00,,,0.00,0.000000,,2013-04-28 04:43:00,
2013-04-28 00:53:00,57.0,50.0,-100.00,East,97,0.0,4.0,76,0.00,,,0.00,0.000000,,2013-04-28 04:53:00,
2013-04-28 01:02:00,57.0,50.0,-100.00,East,97,0.0,4.0,76,0.00,,,0.00,0.000000,,2013-04-28 05:02:00,
2013-04-28 01:12:00,57.0,50.0,-100.00,East,97,0.0,4.0,76,0.00,,,0.00,0.000000,,2013-04-28 05:12:00,
2013-04-28 01:42:00,56.0,49.0,-100.00,East,81,0.0,0.0,77,0.00,,,0.00,0.000000,,2013-04-28 05:42:00,
2013-04-28 01:52:00,56.0,49.0,-100.00,East,81,0.0,0.0,77,0.00,,,0.00,0.000000,,2013-04-28 05:52:00,
2013-04-28 02:01:00,56.0,49.0,-100.00,East,81,0.0,0.0,77,0.00,,,0.00,0.000000,,2013-04-28 06:01:00,
2013-04-28 02:12:00,56.0,49.0,-100.00,East,81,0.0,0.0,77,0.00,,,0.00,0.000000,,2013-04-28 06:12:00,
2013-04-28 02:42:00,58.0,47.0,-100.00,East,81,2.0,6.0,68,0.00,,,0.00,0.000000,,2013-04-28 06:42:00,
2013-04-28 02:52:00,58.0,47.0,-100.00,East,81,2.0,6.0,68,0.00,,,0.00,0.000000,,2013-04-28 06:52:00,
2013-04-28 03:02:00,58.0,47.0,-100.00,East,81,2.0,6.0,68,0.00,,,0.00,0.000000,,2013-04-28 07:02:00,
2013-04-28 03:11:00,58.0,47.0,-100.00,East,81,2.0,6.0,68,0.00,,,0.00,0.000000,,2013-04-28 07:11:00,
2013-04-28 03:42:00,58.0,48.0,-100.00,ENE,74,2.0,6.0,70,0.00,,,0.00,0.000000,,2013-04-28 07:42:00,
2013-04-28 03:52:00,58.0,48.0,-100.00,ENE,74,2.0,6.0,70,0.00,,,0.00,0.000000,,2013-04-28 07:52:00,
2013-04-28 04:02:00,58.0,48.0,-100.00,ENE,74,2.0,6.0,70,0.00,,,0.00,0.000000,,2013-04-28 08:02:00,
2013-04-28 04:12:00,58.0,48.0,-100.00,ENE,74,2.0,6.0,70,0.00,,,0.00,0.000000,,2013-04-28 08:12:00,
2013-04-28 04:42:00,56.0,48.0,-100.00,East,89,0.0,4.0,74,0.00,,,0.00,0.000000,,2013-04-28 08:42:00,
2013-04-28 04:52:00,56.0,48.0,-100.00,East,89,0.0,4.0,74,0.00,,,0.00,0.000000,,2013-04-28 08:52:00,
2013-04-28 05:01:00,56.0,48.0,-100.00,East,89,0.0,4.0,74,0.00,,,0.00,0.000000,,2013-04-28 09:01:00,
2013-04-28 05:12:00,56.0,48.0,-100.00,East,89,0.0,4.0,74,0.00,,,0.00,0.000000,,2013-04-28 09:12:00,
2013-04-28 05:42:00,56.0,49.0,-100.00,East,94,0.0,0.0,77,0.00,,,0.00,0.000000,,2013-04-28 09:42:00,
2013-04-28 05:53:00,56.0,49.0,-100.00,East,94,0.0,0.0,77,0.00,,,0.00,0.000000,,2013-04-28 09:53:00,
2013-04-28 06:03:00,56.0,49.0,-100.00,East,94,0.0,0.0,77,0.00,,,0.00,0.000000,,2013-04-28 10:03:00,
2013-04-28 06:12:00,56.0,49.0,-100.00,East,94,0.0,0.0,77,0.00,,,0.00,0.000000,,2013-04-28 10:12:00,
2013-04-28 06:42:00,56.0,50.0,-100.00,East,99,0.0,4.0,79,0.00,,,0.00,0.000000,,2013-04-28 10:42:00,
2013-04-28 06:53:00,56.0,50.0,-100.00,East,99,0.0,4.0,79,0.00,,,0.00,0.000000,,2013-04-28 10:53:00,
2013-04-28 07:02:00,56.0,50.0,-100.00,East,99,0.0,4.0,79,0.00,,,0.00,0.000000,,2013-04-28 11:02:00,
2013-04-28 07:11:00,56.0,50.0,-100.00,East,99,0.0,4.0,79,0.00,,,0.00,0.000000,,2013-04-28 11:11:00,
2013-04-28 07:42:00,54.0,49.0,-100.00,ESE,121,0.0,0.0,83,0.00,,,0.00,27.000000,,2013-04-28 11:42:00,
2013-04-28 07:52:00,54.0,49.0,-100.00,ESE,121,0.0,0.0,83,0.00,,,0.00,27.000000,,2013-04-28 11:52:00,
2013-04-28 08:02:00,54.0,49.0,-100.00,ESE,121,0.0,0.0,83,0.00,,,0.00,27.000000,,2013-04-28 12:02:00,
2013-04-28 08:12:00,54.0,49.0,-100.00,ESE,121,0.0,0.0,83,0.00,,,0.00,27.000000,,2013-04-28 12:12:00,
2013-04-28 08:42:00,60.0,53.0,-100.00,ENE,66,0.0,0.0,79,0.00,,,0.00,128.000000,,2013-04-28 12:42:00,
2013-04-28 08:52:00,60.0,53.0,-100.00,ENE,66,0.0,0.0,79,0.00,,,0.00,128.000000,,2013-04-28 12:52:00,
2013-04-28 09:02:00,60.0,53.0,-100.00,ENE,66,0.0,0.0,79,0.00,,,0.00,128.000000,,2013-04-28 13:02:00,
2013-04-28 09:11:00,60.0,53.0,-100.00,ENE,66,0.0,0.0,79,0.00,,,0.00,128.000000,,2013-04-28 13:11:00,
2013-04-28 09:42:00,68.0,53.0,-100.00,ENE,69,2.0,7.0,58,0.00,,,0.00,493.000000,,2013-04-28 13:42:00,
2013-04-28 09:52:00,68.0,53.0,-100.00,ENE,69,2.0,7.0,58,0.00,,,0.00,493.000000,,2013-04-28 13:52:00,
2013-04-28 10:02:00,68.0,53.0,-100.00,ENE,69,2.0,7.0,58,0.00,,,0.00,493.000000,,2013-04-28 14:02:00,
2013-04-28 10:11:00,68.0,53.0,-100.00,ENE,69,2.0,7.0,58,0.00,,,0.00,493.000000,,2013-04-28 14:11:00,
2013-04-28 10:42:00,70.0,51.0,-100.00,ENE,73,5.0,11.0,51,0.00,,,0.00,667.000000,,2013-04-28 14:42:00,
2013-04-28 10:52:00,70.0,51.0,-100.00,ENE,73,5.0,11.0,51,0.00,,,0.00,667.000000,,2013-04-28 14:52:00,
2013-04-28 11:02:00,70.0,51.0,-100.00,ENE,73,5.0,11.0,51,0.00,,,0.00,667.000000,,2013-04-28 15:02:00,
2013-04-28 11:12:00,70.0,51.0,-100.00,ENE,73,5.0,11.0,51,0.00,,,0.00,667.000000,,2013-04-28 15:12:00,
2013-04-28 11:43:00,71.0,41.0,-100.00,East,82,6.0,10.0,34,0.00,,,0.00,815.000000,,2013-04-28 15:43:00,
2013-04-28 11:53:00,71.0,41.0,-100.00,East,82,6.0,10.0,34,0.00,,,0.00,815.000000,,2013-04-28 15:53:00,
2013-04-28 12:03:00,71.0,41.0,-100.00,East,82,6.0,10.0,34,0.00,,,0.00,815.000000,,2013-04-28 16:03:00,
2013-04-28 12:13:00,71.0,41.0,-100.00,East,82,6.0,10.0,34,0.00,,,0.00,815.000000,,2013-04-28 16:13:00,
2013-04-28 12:43:00,72.0,44.0,-100.00,East,80,5.0,10.0,36,0.00,,,0.00,862.000000,,2013-04-28 16:43:00,
2013-04-28 12:52:00,72.0,44.0,-100.00,East,80,5.0,10.0,36,0.00,,,0.00,862.000000,,2013-04-28 16:52:00,
2013-04-28 13:02:00,72.0,44.0,-100.00,East,80,5.0,10.0,36,0.00,,,0.00,862.000000,,2013-04-28 17:02:00,
2013-04-28 13:12:00,72.0,44.0,-100.00,East,80,5.0,10.0,36,0.00,,,0.00,862.000000,,2013-04-28 17:12:00,
2013-04-28 13:43:00,72.0,44.0,-100.00,East,81,5.0,12.0,37,0.00,,,0.00,687.000000,,2013-04-28 17:43:00,
2013-04-28 13:52:00,72.0,44.0,-100.00,East,81,5.0,12.0,37,0.00,,,0.00,687.000000,,2013-04-28 17:52:00,
2013-04-28 14:02:00,72.0,44.0,-100.00,East,81,5.0,12.0,37,0.00,,,0.00,687.000000,,2013-04-28 18:02:00,
2013-04-28 14:12:00,72.0,44.0,-100.00,East,81,5.0,12.0,37,0.00,,,0.00,687.000000,,2013-04-28 18:12:00,
2013-04-28 14:42:00,70.0,44.0,-100.00,East,79,5.0,12.0,39,0.00,,,0.00,413.000000,,2013-04-28 18:42:00,
2013-04-28 14:52:00,70.0,44.0,-100.00,East,79,5.0,12.0,39,0.00,,,0.00,413.000000,,2013-04-28 18:52:00,
2013-04-28 15:02:00,70.0,44.0,-100.00,East,79,5.0,12.0,39,0.00,,,0.00,413.000000,,2013-04-28 19:02:00,
2013-04-28 15:11:00,70.0,44.0,-100.00,East,79,5.0,12.0,39,0.00,,,0.00,413.000000,,2013-04-28 19:11:00,
2013-04-28 15:42:00,70.0,43.0,-100.00,ENE,74,5.0,11.0,38,0.00,,,0.00,404.000000,,2013-04-28 19:42:00,
2013-04-28 15:52:00,70.0,43.0,-100.00,ENE,74,5.0,11.0,38,0.00,,,0.00,404.000000,,2013-04-28 19:52:00,
2013-04-28 16:02:00,70.0,43.0,-100.00,ENE,74,5.0,11.0,38,0.00,,,0.00,404.000000,,2013-04-28 20:02:00,
2013-04-28 16:12:00,70.0,43.0,-100.00,ENE,74,5.0,11.0,38,0.00,,,0.00,404.000000,,2013-04-28 20:12:00,
2013-04-28 16:42:00,71.0,45.0,-100.00,ENE,75,4.0,9.0,39,0.00,,,0.00,422.000000,,2013-04-28 20:42:00,
2013-04-28 16:52:00,71.0,45.0,-100.00,ENE,75,4.0,9.0,39,0.00,,,0.00,422.000000,,2013-04-28 20:52:00,
2013-04-28 17:01:00,71.0,45.0,-100.00,ENE,75,4.0,9.0,39,0.00,,,0.00,422.000000,,2013-04-28 21:01:00,
2013-04-28 17:11:00,71.0,45.0,-100.00,ENE,75,4.0,9.0,39,0.00,,,0.00,422.000000,,2013-04-28 21:11:00,
2013-04-28 17:43:00,70.0,45.0,-100.00,ENE,73,3.0,10.0,40,0.00,,,0.00,329.000000,,2013-04-28 21:43:00,
2013-04-28 17:53:00,70.0,45.0,-100.00,ENE,73,3.0,10.0,40,0.00,,,0.00,329.000000,,2013-04-28 21:53:00,
2013-04-28 18:03:00,70.0,45.0,-100.00,ENE,73,3.0,10.0,40,0.00,,,0.00,329.000000,,2013-04-28 22:03:00,
2013-04-28 18:13:00,70.0,45.0,-100.00,ENE,73,3.0,10.0,40,0.00,,,0.00,329.000000,,2013-04-28 22:13:00,
2013-04-28 18:42:00,66.0,47.0,-100.00,East,80,4.0,7.0,51,0.00,,,0.00,151.000000,,2013-04-28 22:42:00,
2013-04-28 18:52:00,66.0,47.0,-100.00,East,80,4.0,7.0,51,0.00,,,0.00,151.000000,,2013-04-28 22:52:00,
2013-04-28 19:02:00,66.0,47.0,-100.00,East,80,4.0,7.0,51,0.00,,,0.00,151.000000,,2013-04-28 23:02:00,
2013-04-28 19:12:00,66.0,47.0,-100.00,East,80,4.0,7.0,51,0.00,,,0.00,151.000000,,2013-04-28 23:12:00,
2013-04-28 19:42:00,64.0,47.0,-100.00,ENE,71,3.0,9.0,55,0.00,,,0.00,68.000000,,2013-04-28 23:42:00,
2013-04-28 19:52:00,64.0,47.0,-100.00,ENE,71,3.0,9.0,55,0.00,,,0.00,68.000000,,2013-04-28 23:52:00,
2013-04-28 20:01:00,64.0,47.0,-100.00,ENE,71,3.0,9.0,55,0.00,,,0.00,68.000000,,2013-04-29 00:01:00,
2013-04-28 20:11:00,64.0,47.0,-100.00,ENE,71,3.0,9.0,55,0.00,,,0.00,68.000000,,2013-04-29 00:11:00,
2013-04-28 20:42:00,63.0,50.0,-100.00,East,81,2.0,6.0,63,0.00,,,0.00,7.000000,,2013-04-29 00:42:00,
2013-04-28 20:52:00,63.0,50.0,-100.00,East,81,2.0,6.0,63,0.00,,,0.00,7.000000,,2013-04-29 00:52:00,
2013-04-28 21:01:00,63.0,50.0,-100.00,East,81,2.0,6.0,63,0.00,,,0.00,7.000000,,2013-04-29 01:01:00,
2013-04-28 21:12:00,63.0,50.0,-100.00,East,81,2.0,6.0,63,0.00,,,0.00,7.000000,,2013-04-29 01:12:00,
2013-04-28 21:42:00,62.0,54.0,-100.00,East,92,0.0,0.0,76,0.00,,,0.00,0.000000,,2013-04-29 01:42:00,
2013-04-28 21:52:00,62.0,54.0,-100.00,East,92,0.0,0.0,76,0.00,,,0.00,0.000000,,2013-04-29 01:52:00,
2013-04-28 22:02:00,62.0,54.0,-100.00,East,92,0.0,0.0,76,0.00,,,0.00,0.000000,,2013-04-29 02:02:00,
2013-04-28 22:11:00,62.0,54.0,-100.00,East,92,0.0,0.0,76,0.00,,,0.00,0.000000,,2013-04-29 02:11:00,
2013-04-28 22:42:00,63.0,57.0,-100.00,ESE,121,0.0,5.0,81,0.00,,,0.00,0.000000,,2013-04-29 02:42:00,
2013-04-28 22:52:00,63.0,57.0,-100.00,ESE,121,0.0,5.0,81,0.00,,,0.00,0.000000,,2013-04-29 02:52:00,
2013-04-28 23:01:00,63.0,57.0,-100.00,ESE,121,0.0,5.0,81,0.00,,,0.00,0.000000,,2013-04-29 03:01:00,
2013-04-28 23:12:00,63.0,57.0,-100.00,ESE,121,0.0,5.0,81,0.00,,,0.00,0.000000,,2013-04-29 03:12:00,
2013-04-28 23:43:00,64.0,58.0,-100.00,ESE,123,2.0,5.0,81,0.00,,,0.00,0.000000,,2013-04-29 03:43:00,
2013-04-28 23:53:00,64.0,58.0,-100.00,ESE,123,2.0,5.0,81,0.00,,,0.00,0.000000,,2013-04-29 03:53:00,